Club Med II — FNIR — position and weather

sailwx.info

Track history (hours):
 
Tides and Currents Weather Stations Pressure Air Temp Water Temp Dewpoint Dewpoint Depression Visibility Wind Speed Wind Dir Waves Ship Positions

Club Med II

Operator: V.Ships Leisure S.A.M

Last reported at 2019-Aug-19 09:30 UTC. Time now 2019-Aug-22 09:52 UTC.
Position N 36°54' E 027°18'.

Length 187 m; draft 5.5 m.

Type: Ship. MMSI: 227194000.

Date/timePositionNaut miles runAvg speedWind from/ knotsBaromVisibWave heightAir tempDewpointWater temp
2019-Aug-19 09:30N 36°54' E 027°18'0 0.1
2019-Aug-19 09:00N 36°54' E 027°18'0 0.0
2019-Aug-19 08:27N 36°54' E 027°18'0 0.1
2019-Aug-19 07:57N 36°54' E 027°18'0 0.1
2019-Aug-19 07:30N 36°54' E 027°18'73 6.7
2019-Aug-18 20:34N 37°11' E 025°49'1 9.6
2019-Aug-18 20:31N 37°12' E 025°48'5 9.8
2019-Aug-18 20:01N 37°13' E 025°43'6 9.8
2019-Aug-18 19:27N 37°15' E 025°36'410.0
2019-Aug-18 19:01N 37°17' E 025°31'5 9.8
2019-Aug-18 18:31N 37°19' E 025°26'3 6.0
2019-Aug-18 18:00N 37°20' E 025°22'3 6.0
2019-Aug-18 17:31N 37°17' E 025°22'3 5.5
2019-Aug-18 17:00N 37°14' E 025°21'3 5.3
2019-Aug-18 16:31N 37°11' E 025°21'3 5.9
2019-Aug-18 16:00N 37°08' E 025°22'2 4.0
2019-Aug-18 15:26N 37°06' E 025°22'0 0.1
2019-Aug-18 14:59N 37°06' E 025°22'0 0.0
2019-Aug-18 14:23N 37°06' E 025°22'0 0.0
2019-Aug-18 13:59N 37°06' E 025°22'0 0.0
2019-Aug-18 13:26N 37°06' E 025°22'0 0.0
2019-Aug-18 12:56N 37°06' E 025°22'0 0.0
2019-Aug-18 12:29N 37°06' E 025°22'0 0.1
2019-Aug-18 11:56N 37°06' E 025°22'0 0.0
2019-Aug-18 11:26N 37°06' E 025°22'0 0.0
2019-Aug-18 10:59N 37°06' E 025°22'0 0.0
2019-Aug-18 10:29N 37°06' E 025°22'0 0.0
2019-Aug-18 09:59N 37°06' E 025°22'0 0.0
2019-Aug-18 09:29N 37°06' E 025°22'0 0.0
2019-Aug-18 08:59N 37°06' E 025°22'0 0.0
2019-Aug-18 08:29N 37°06' E 025°22'0 0.0
2019-Aug-18 07:59N 37°06' E 025°22'0 0.0
2019-Aug-18 06:59N 37°06' E 025°22'0 0.0
2019-Aug-18 06:29N 37°06' E 025°22'0 0.2
2019-Aug-18 06:00N 37°06' E 025°22'0 0.6
2019-Aug-18 05:29N 37°06' E 025°22'0 0.1
2019-Aug-18 04:59N 37°06' E 025°22'1 1.5
2019-Aug-18 04:30N 37°06' E 025°21'611.0
2019-Aug-18 04:00N 37°11' E 025°17'611.7
2019-Aug-18 03:30N 37°12' E 025°10'611.9
2019-Aug-18 03:00N 37°14' E 025°03'612.1
2019-Aug-18 02:30N 37°16' E 024°56'612.0
2019-Aug-18 02:00N 37°18' E 024°48'4210.8
2019-Aug-17 22:10N 37°33' E 023°60'313.0
2019-Aug-17 21:57N 37°34' E 023°57'613.1
2019-Aug-17 21:30N 37°36' E 023°49'611.5
2019-Aug-17 21:00N 37°39' E 023°43'611.9
2019-Aug-17 20:30N 37°44' E 023°39'612.0
2019-Aug-17 20:00N 37°49' E 023°36'713.2
2019-Aug-17 19:30N 37°56' E 023°37'1 1.8
2019-Aug-17 19:00N 37°56' E 023°38'0 0.0
2019-Aug-17 18:30N 37°56' E 023°38'0 0.0
2019-Aug-17 17:30N 37°56' E 023°38'0 0.0
2019-Aug-17 17:00N 37°56' E 023°38'0 0.0
2019-Aug-17 16:30N 37°56' E 023°38'0 0.0
2019-Aug-17 16:00N 37°56' E 023°38'0 0.0
2019-Aug-17 15:30N 37°56' E 023°38'0 0.0
2019-Aug-17 15:00N 37°56' E 023°38'0 0.0
2019-Aug-17 14:24N 37°56' E 023°38'0 0.0
2019-Aug-17 14:00N 37°56' E 023°38'0 0.0
2019-Aug-17 13:30N 37°56' E 023°38'0 0.0
2019-Aug-17 13:00N 37°56' E 023°38'0 0.0
2019-Aug-17 12:27N 37°56' E 023°38'0 0.0
2019-Aug-17 12:00N 37°56' E 023°38'0 0.0
2019-Aug-17 11:27N 37°56' E 023°38'0 0.0
2019-Aug-17 11:00N 37°56' E 023°38'0 0.0
2019-Aug-17 10:30N 37°56' E 023°38'0 0.0
2019-Aug-17 09:57N 37°56' E 023°38'0 0.0
2019-Aug-17 09:30N 37°56' E 023°38'0 0.0
2019-Aug-17 09:00N 37°56' E 023°38'0 0.0
2019-Aug-17 08:30N 37°56' E 023°38'0 0.0
2019-Aug-17 08:00N 37°56' E 023°38'0 0.0
2019-Aug-17 07:30N 37°56' E 023°38'0 0.0
2019-Aug-17 07:00N 37°56' E 023°38'0 0.0
2019-Aug-17 06:30N 37°56' E 023°38'0 0.0
2019-Aug-17 06:00N 37°56' E 023°38'0 0.0
2019-Aug-17 05:30N 37°56' E 023°38'0 0.0
2019-Aug-17 05:00N 37°56' E 023°38'0 0.0
2019-Aug-17 04:27N 37°56' E 023°38'0 0.0
2019-Aug-17 03:57N 37°56' E 023°38'0 0.0
2019-Aug-17 03:24N 37°56' E 023°38'0 0.0
2019-Aug-17 03:00N 37°56' E 023°38'0 0.0
2019-Aug-17 02:30N 37°56' E 023°38'0 0.0
2019-Aug-17 02:00N 37°56' E 023°38'2 3.8
2019-Aug-17 01:30N 37°55' E 023°37'3 6.8
2019-Aug-17 01:00N 37°52' E 023°39'5 9.3
2019-Aug-17 00:30N 37°47' E 023°41'5 9.2
2019-Aug-17 00:00N 37°43' E 023°43'5 9.4
2019-Aug-16 23:30N 37°39' E 023°47'5 9.7
2019-Aug-16 22:57N 37°36' E 023°52'710.4
2019-Aug-16 22:15N 37°32' E 024°00'4 9.7
2019-Aug-16 21:49N 37°31' E 024°05'8 9.6
2019-Aug-16 21:00N 37°31' E 024°15'24 7.8
2019-Aug-16 17:52N 37°23' E 024°44'3 9.1
2019-Aug-16 17:30N 37°22' E 024°48'5 9.2
2019-Aug-16 17:00N 37°20' E 024°53'510.3
2019-Aug-16 16:30N 37°23' E 024°59'2 4.0
2019-Aug-16 15:58N 37°25' E 024°58'0 0.0
2019-Aug-16 15:30N 37°25' E 024°58'0 0.0
2019-Aug-16 15:00N 37°25' E 024°58'0 0.1
2019-Aug-16 14:30N 37°25' E 024°58'0 0.0
2019-Aug-16 14:00N 37°25' E 024°58'0 0.0
2019-Aug-16 13:24N 37°25' E 024°58'0 0.0
2019-Aug-16 13:00N 37°25' E 024°58'0 0.0
2019-Aug-16 12:30N 37°25' E 024°58'0 0.0
2019-Aug-16 11:54N 37°25' E 024°58'0 0.1
2019-Aug-16 11:30N 37°25' E 024°58'0 0.1
2019-Aug-16 11:00N 37°25' E 024°58'0 0.0
2019-Aug-16 10:27N 37°25' E 024°58'0 0.0
2019-Aug-16 10:00N 37°25' E 024°58'0 0.1
2019-Aug-16 09:30N 37°25' E 024°58'0 0.1
2019-Aug-16 08:57N 37°25' E 024°58'0 0.0
2019-Aug-16 08:27N 37°25' E 024°58'0 0.0
2019-Aug-16 07:54N 37°25' E 024°58'0 0.1
2019-Aug-16 07:27N 37°25' E 024°58'0 0.0
2019-Aug-16 06:54N 37°25' E 024°58'0 0.0
2019-Aug-16 06:30N 37°25' E 024°58'0 0.0
2019-Aug-16 05:57N 37°25' E 024°58'0 0.0
2019-Aug-16 05:30N 37°25' E 024°58'0 0.0
2019-Aug-16 05:00N 37°25' E 024°58'1 1.6
2019-Aug-16 04:30N 37°25' E 024°59'3 6.0
2019-Aug-16 04:01N 37°22' E 024°59'2 3.9
2019-Aug-16 03:31N 37°20' E 024°58'1 1.3
2019-Aug-16 03:00N 37°19' E 024°58'1 2.8
2019-Aug-16 02:31N 37°18' E 024°58'2 3.3
2019-Aug-16 02:00N 37°16' E 024°57'2 3.5
2019-Aug-16 01:31N 37°14' E 024°56'2 3.4
2019-Aug-16 01:01N 37°13' E 024°56'2 4.4
2019-Aug-16 00:30N 37°11' E 024°55'10 0.3
2019-Aug-14 16:37N 37°03' E 025°02'1 5.5
2019-Aug-14 16:31N 37°03' E 025°03'5 9.7
2019-Aug-14 16:00N 37°05' E 025°08'0 0.1
2019-Aug-14 14:40N 37°05' E 025°08'0 0.0
2019-Aug-14 08:57N 37°05' E 025°08'0 0.0
2019-Aug-14 08:27N 37°05' E 025°08'0 0.0
2019-Aug-14 07:47N 37°05' E 025°08'0 0.0
2019-Aug-14 07:25N 37°05' E 025°08'0 0.0
2019-Aug-14 06:09N 37°05' E 025°08'0 0.1
2019-Aug-14 05:59N 37°05' E 025°08'0 0.0
2019-Aug-14 05:30N 37°05' E 025°08'0 0.1
2019-Aug-14 04:51N 37°05' E 025°08'1 1.6
2019-Aug-14 04:26N 37°05' E 025°08'3 5.9
2019-Aug-14 04:00N 37°08' E 025°07'3 5.9
2019-Aug-14 03:26N 37°10' E 025°09'3 6.2
2019-Aug-14 03:00N 37°11' E 025°12'3 6.4
2019-Aug-14 02:30N 37°12' E 025°16'3 6.7
2019-Aug-14 02:00N 37°12' E 025°21'3 6.9
2019-Aug-14 01:30N 37°13' E 025°25'3 6.8
2019-Aug-14 01:00N 37°14' E 025°29'4 7.2
2019-Aug-14 00:26N 37°14' E 025°34'4 6.4
2019-Aug-13 23:46N 37°15' E 025°40'2 6.3
2019-Aug-13 23:30N 37°14' E 025°42'3 6.5
2019-Aug-13 23:00N 37°13' E 025°45'3 6.5
2019-Aug-13 22:30N 37°13' E 025°49'  
Track history (hours):
 
Tides and Currents Weather Stations Pressure Air Temp Water Temp Dewpoint Dewpoint Depression Visibility Wind Speed Wind Dir Waves Ship Positions

Club Med II

Operator: V.Ships Leisure S.A.M

Last reported at 2019-Aug-19 09:30 UTC. Time now 2019-Aug-22 09:52 UTC.
Position N 36°54' E 027°18'.

Length 187 m; draft 5.5 m.

Type: Ship. MMSI: 227194000.

Date/timePositionNaut miles runAvg speedWind from/ knotsBaromVisibWave heightAir tempDewpointWater temp
2019-Aug-19 09:30N 36°54' E 027°18'0 0.1
2019-Aug-19 09:00N 36°54' E 027°18'0 0.0
2019-Aug-19 08:27N 36°54' E 027°18'0 0.1
2019-Aug-19 07:57N 36°54' E 027°18'0 0.1
2019-Aug-19 07:30N 36°54' E 027°18'73 6.7
2019-Aug-18 20:34N 37°11' E 025°49'1 9.6
2019-Aug-18 20:31N 37°12' E 025°48'5 9.8
2019-Aug-18 20:01N 37°13' E 025°43'6 9.8
2019-Aug-18 19:27N 37°15' E 025°36'410.0
2019-Aug-18 19:01N 37°17' E 025°31'5 9.8
2019-Aug-18 18:31N 37°19' E 025°26'3 6.0
2019-Aug-18 18:00N 37°20' E 025°22'3 6.0
2019-Aug-18 17:31N 37°17' E 025°22'3 5.5
2019-Aug-18 17:00N 37°14' E 025°21'3 5.3
2019-Aug-18 16:31N 37°11' E 025°21'3 5.9
2019-Aug-18 16:00N 37°08' E 025°22'2 4.0
2019-Aug-18 15:26N 37°06' E 025°22'0 0.1
2019-Aug-18 14:59N 37°06' E 025°22'0 0.0
2019-Aug-18 14:23N 37°06' E 025°22'0 0.0
2019-Aug-18 13:59N 37°06' E 025°22'0 0.0
2019-Aug-18 13:26N 37°06' E 025°22'0 0.0
2019-Aug-18 12:56N 37°06' E 025°22'0 0.0
2019-Aug-18 12:29N 37°06' E 025°22'0 0.1
2019-Aug-18 11:56N 37°06' E 025°22'0 0.0
2019-Aug-18 11:26N 37°06' E 025°22'0 0.0
2019-Aug-18 10:59N 37°06' E 025°22'0 0.0
2019-Aug-18 10:29N 37°06' E 025°22'0 0.0
2019-Aug-18 09:59N 37°06' E 025°22'0 0.0
2019-Aug-18 09:29N 37°06' E 025°22'0 0.0
2019-Aug-18 08:59N 37°06' E 025°22'0 0.0
2019-Aug-18 08:29N 37°06' E 025°22'0 0.0
2019-Aug-18 07:59N 37°06' E 025°22'0 0.0
2019-Aug-18 06:59N 37°06' E 025°22'0 0.0
2019-Aug-18 06:29N 37°06' E 025°22'0 0.2
2019-Aug-18 06:00N 37°06' E 025°22'0 0.6
2019-Aug-18 05:29N 37°06' E 025°22'0 0.1
2019-Aug-18 04:59N 37°06' E 025°22'1 1.5
2019-Aug-18 04:30N 37°06' E 025°21'611.0
2019-Aug-18 04:00N 37°11' E 025°17'611.7
2019-Aug-18 03:30N 37°12' E 025°10'611.9
2019-Aug-18 03:00N 37°14' E 025°03'612.1
2019-Aug-18 02:30N 37°16' E 024°56'612.0
2019-Aug-18 02:00N 37°18' E 024°48'4210.8
2019-Aug-17 22:10N 37°33' E 023°60'313.0
2019-Aug-17 21:57N 37°34' E 023°57'613.1
2019-Aug-17 21:30N 37°36' E 023°49'611.5
2019-Aug-17 21:00N 37°39' E 023°43'611.9
2019-Aug-17 20:30N 37°44' E 023°39'612.0
2019-Aug-17 20:00N 37°49' E 023°36'713.2
2019-Aug-17 19:30N 37°56' E 023°37'1 1.8
2019-Aug-17 19:00N 37°56' E 023°38'0 0.0
2019-Aug-17 18:30N 37°56' E 023°38'0 0.0
2019-Aug-17 17:30N 37°56' E 023°38'0 0.0
2019-Aug-17 17:00N 37°56' E 023°38'0 0.0
2019-Aug-17 16:30N 37°56' E 023°38'0 0.0
2019-Aug-17 16:00N 37°56' E 023°38'0 0.0
2019-Aug-17 15:30N 37°56' E 023°38'0 0.0
2019-Aug-17 15:00N 37°56' E 023°38'0 0.0
2019-Aug-17 14:24N 37°56' E 023°38'0 0.0
2019-Aug-17 14:00N 37°56' E 023°38'0 0.0
2019-Aug-17 13:30N 37°56' E 023°38'0 0.0
2019-Aug-17 13:00N 37°56' E 023°38'0 0.0
2019-Aug-17 12:27N 37°56' E 023°38'0 0.0
2019-Aug-17 12:00N 37°56' E 023°38'0 0.0
2019-Aug-17 11:27N 37°56' E 023°38'0 0.0
2019-Aug-17 11:00N 37°56' E 023°38'0 0.0
2019-Aug-17 10:30N 37°56' E 023°38'0 0.0
2019-Aug-17 09:57N 37°56' E 023°38'0 0.0
2019-Aug-17 09:30N 37°56' E 023°38'0 0.0
2019-Aug-17 09:00N 37°56' E 023°38'0 0.0
2019-Aug-17 08:30N 37°56' E 023°38'0 0.0
2019-Aug-17 08:00N 37°56' E 023°38'0 0.0
2019-Aug-17 07:30N 37°56' E 023°38'0 0.0
2019-Aug-17 07:00N 37°56' E 023°38'0 0.0
2019-Aug-17 06:30N 37°56' E 023°38'0 0.0
2019-Aug-17 06:00N 37°56' E 023°38'0 0.0
2019-Aug-17 05:30N 37°56' E 023°38'0 0.0
2019-Aug-17 05:00N 37°56' E 023°38'0 0.0
2019-Aug-17 04:27N 37°56' E 023°38'0 0.0
2019-Aug-17 03:57N 37°56' E 023°38'0 0.0
2019-Aug-17 03:24N 37°56' E 023°38'0 0.0
2019-Aug-17 03:00N 37°56' E 023°38'0 0.0
2019-Aug-17 02:30N 37°56' E 023°38'0 0.0
2019-Aug-17 02:00N 37°56' E 023°38'2 3.8
2019-Aug-17 01:30N 37°55' E 023°37'3 6.8
2019-Aug-17 01:00N 37°52' E 023°39'5 9.3
2019-Aug-17 00:30N 37°47' E 023°41'5 9.2
2019-Aug-17 00:00N 37°43' E 023°43'5 9.4
2019-Aug-16 23:30N 37°39' E 023°47'5 9.7
2019-Aug-16 22:57N 37°36' E 023°52'710.4
2019-Aug-16 22:15N 37°32' E 024°00'4 9.7
2019-Aug-16 21:49N 37°31' E 024°05'8 9.6
2019-Aug-16 21:00N 37°31' E 024°15'24 7.8
2019-Aug-16 17:52N 37°23' E 024°44'3 9.1
2019-Aug-16 17:30N 37°22' E 024°48'5 9.2
2019-Aug-16 17:00N 37°20' E 024°53'510.3
2019-Aug-16 16:30N 37°23' E 024°59'2 4.0
2019-Aug-16 15:58N 37°25' E 024°58'0 0.0
2019-Aug-16 15:30N 37°25' E 024°58'0 0.0
2019-Aug-16 15:00N 37°25' E 024°58'0 0.1
2019-Aug-16 14:30N 37°25' E 024°58'0 0.0
2019-Aug-16 14:00N 37°25' E 024°58'0 0.0
2019-Aug-16 13:24N 37°25' E 024°58'0 0.0
2019-Aug-16 13:00N 37°25' E 024°58'0 0.0
2019-Aug-16 12:30N 37°25' E 024°58'0 0.0
2019-Aug-16 11:54N 37°25' E 024°58'0 0.1
2019-Aug-16 11:30N 37°25' E 024°58'0 0.1
2019-Aug-16 11:00N 37°25' E 024°58'0 0.0
2019-Aug-16 10:27N 37°25' E 024°58'0 0.0
2019-Aug-16 10:00N 37°25' E 024°58'0 0.1
2019-Aug-16 09:30N 37°25' E 024°58'0 0.1
2019-Aug-16 08:57N 37°25' E 024°58'0 0.0
2019-Aug-16 08:27N 37°25' E 024°58'0 0.0
2019-Aug-16 07:54N 37°25' E 024°58'0 0.1
2019-Aug-16 07:27N 37°25' E 024°58'0 0.0
2019-Aug-16 06:54N 37°25' E 024°58'0 0.0
2019-Aug-16 06:30N 37°25' E 024°58'0 0.0
2019-Aug-16 05:57N 37°25' E 024°58'0 0.0
2019-Aug-16 05:30N 37°25' E 024°58'0 0.0
2019-Aug-16 05:00N 37°25' E 024°58'1 1.6
2019-Aug-16 04:30N 37°25' E 024°59'3 6.0
2019-Aug-16 04:01N 37°22' E 024°59'2 3.9
2019-Aug-16 03:31N 37°20' E 024°58'1 1.3
2019-Aug-16 03:00N 37°19' E 024°58'1 2.8
2019-Aug-16 02:31N 37°18' E 024°58'2 3.3
2019-Aug-16 02:00N 37°16' E 024°57'2 3.5
2019-Aug-16 01:31N 37°14' E 024°56'2 3.4
2019-Aug-16 01:01N 37°13' E 024°56'2 4.4
2019-Aug-16 00:30N 37°11' E 024°55'10 0.3
2019-Aug-14 16:37N 37°03' E 025°02'1 5.5
2019-Aug-14 16:31N 37°03' E 025°03'5 9.7
2019-Aug-14 16:00N 37°05' E 025°08'0 0.1
2019-Aug-14 14:40N 37°05' E 025°08'0 0.0
2019-Aug-14 08:57N 37°05' E 025°08'0 0.0
2019-Aug-14 08:27N 37°05' E 025°08'0 0.0
2019-Aug-14 07:47N 37°05' E 025°08'0 0.0
2019-Aug-14 07:25N 37°05' E 025°08'0 0.0
2019-Aug-14 06:09N 37°05' E 025°08'0 0.1
2019-Aug-14 05:59N 37°05' E 025°08'0 0.0
2019-Aug-14 05:30N 37°05' E 025°08'0 0.1
2019-Aug-14 04:51N 37°05' E 025°08'1 1.6
2019-Aug-14 04:26N 37°05' E 025°08'3 5.9
2019-Aug-14 04:00N 37°08' E 025°07'3 5.9
2019-Aug-14 03:26N 37°10' E 025°09'3 6.2
2019-Aug-14 03:00N 37°11' E 025°12'3 6.4
2019-Aug-14 02:30N 37°12' E 025°16'3 6.7
2019-Aug-14 02:00N 37°12' E 025°21'3 6.9
2019-Aug-14 01:30N 37°13' E 025°25'3 6.8
2019-Aug-14 01:00N 37°14' E 025°29'4 7.2
2019-Aug-14 00:26N 37°14' E 025°34'4 6.4
2019-Aug-13 23:46N 37°15' E 025°40'2 6.3
2019-Aug-13 23:30N 37°14' E 025°42'3 6.5
2019-Aug-13 23:00N 37°13' E 025°45'3 6.5
2019-Aug-13 22:30N 37°13' E 025°49'  

Dump ship's entire track history